Time;durP1;ratioP1;P1;durP2;ratioP2;P2;SDS_P1;SDS_P2;PMS_P1;PMS_P2;Temp;Humidity;BMP_temperature;BMP_pressure;BME280_temperature;BME280_humidity;BME280_pressure;Samples;Min_cycle;Max_cycle;Signal;HPM_P1;HPM_P2
2022/01/16 00:00:40;;;;;;;36.67;11.68;;;4.00;99.90;;;;;;4964982;29;20038;-72
2022/01/16 00:05:56;;;;;;;37.95;12.40;;;4.00;99.90;;;;;;4968053;28;20041;-73
2022/01/16 00:08:22;;;;;;;34.30;11.90;;;3.90;99.90;;;;;;4972470;29;20046;-74
2022/01/16 00:10:49;;;;;;;37.92;14.70;;;3.90;99.90;;;;;;4970975;29;20042;-71
2022/01/16 00:13:15;;;;;;;44.85;14.55;;;3.90;99.90;;;;;;4983739;28;20026;-72
2022/01/16 00:15:44;;;;;;;33.80;11.48;;;3.90;99.90;;;;;;4981382;28;20034;-73
2022/01/16 00:18:21;;;;;;;35.42;12.35;;;3.90;99.90;;;;;;4972218;28;20050;-72
2022/01/16 00:20:49;;;;;;;37.90;11.57;;;3.90;99.90;;;;;;4972871;28;20460;-73
2022/01/16 00:23:23;;;;;;;29.25;11.65;;;3.90;99.90;;;;;;4971968;28;20034;-73
2022/01/16 00:25:54;;;;;;;33.38;12.77;;;4.00;99.90;;;;;;4972635;28;20027;-73
2022/01/16 00:28:22;;;;;;;31.50;11.45;;;4.00;99.90;;;;;;4972560;28;20023;-73
2022/01/16 00:30:48;;;;;;;31.15;11.63;;;4.00;99.90;;;;;;4972066;28;20046;-73
2022/01/16 00:33:14;;;;;;;33.13;10.30;;;4.00;99.90;;;;;;4972098;28;20062;-72
2022/01/16 00:35:40;;;;;;;43.72;12.48;;;4.00;99.90;;;;;;4972184;28;20032;-72
2022/01/16 00:38:06;;;;;;;26.55;9.85;;;4.00;99.90;;;;;;4970848;28;20031;-72
2022/01/16 00:40:32;;;;;;;34.50;11.00;;;4.00;99.90;;;;;;4972241;28;20031;-72
2022/01/16 00:42:58;;;;;;;27.52;9.68;;;4.00;99.90;;;;;;4972385;28;20031;-72
2022/01/16 00:45:24;;;;;;;30.92;9.95;;;4.00;99.90;;;;;;4970771;28;20038;-73
2022/01/16 00:47:50;;;;;;;35.33;11.00;;;4.00;99.90;;;;;;4972379;29;20109;-74
2022/01/16 00:50:16;;;;;;;31.88;10.57;;;4.00;99.90;;;;;;4972507;28;20094;-73
2022/01/16 00:52:41;;;;;;;28.05;7.88;;;4.00;99.90;;;;;;4971883;28;20063;-72
2022/01/16 00:55:08;;;;;;;39.50;12.60;;;4.00;99.90;;;;;;4970806;28;20054;-74
2022/01/16 00:57:34;;;;;;;50.22;11.93;;;4.00;99.90;;;;;;4970578;29;20039;-73
2022/01/16 01:00:00;;;;;;;67.20;12.88;;;4.00;99.90;;;;;;4971811;29;20039;-73
2022/01/16 01:02:26;;;;;;;42.70;13.35;;;4.00;99.90;;;;;;4970862;28;20035;-73
2022/01/16 01:04:51;;;;;;;54.33;13.38;;;4.00;99.90;;;;;;4970707;28;20019;-74
2022/01/16 01:07:19;;;;;;;52.30;12.68;;;4.00;99.90;;;;;;4972077;28;20550;-74
2022/01/16 01:09:44;;;;;;;51.75;13.27;;;4.00;99.90;;;;;;4972125;28;20035;-73
2022/01/16 01:12:20;;;;;;;50.20;13.05;;;4.00;99.90;;;;;;4970464;29;20054;-74
2022/01/16 01:15:05;;;;;;;49.63;12.07;;;4.00;99.90;;;;;;4972134;28;20030;-74
2022/01/16 01:17:34;;;;;;;70.28;11.52;;;4.00;99.90;;;;;;4970109;28;20403;-74
2022/01/16 01:20:00;;;;;;;39.35;11.48;;;4.00;99.90;;;;;;4967008;29;20031;-74
2022/01/16 01:22:26;;;;;;;49.55;13.20;;;4.00;99.90;;;;;;4969216;28;20136;-73
2022/01/16 01:24:51;;;;;;;56.35;15.02;;;4.00;99.90;;;;;;4968774;29;20023;-75
2022/01/16 01:27:23;;;;;;;57.40;15.50;;;4.00;99.90;;;;;;4969123;29;20027;-71
2022/01/16 01:30:09;;;;;;;50.55;13.98;;;4.00;99.90;;;;;;4968829;28;20102;-75
2022/01/16 01:32:37;;;;;;;44.20;12.75;;;4.00;99.90;;;;;;4968029;28;20065;-73
2022/01/16 01:35:05;;;;;;;47.92;14.10;;;4.00;99.90;;;;;;4968927;28;20027;-74
2022/01/16 01:37:30;;;;;;;61.13;13.80;;;4.00;99.90;;;;;;4968606;28;20024;-74
2022/01/16 01:39:56;;;;;;;22.52;9.05;;;4.00;99.90;;;;;;4968268;28;20038;-73
2022/01/16 01:42:30;;;;;;;29.15;9.65;;;4.00;99.90;;;;;;4963673;29;20028;-73
2022/01/16 01:53:13;;;;;;;27.73;8.65;;;3.90;99.90;;;;;;4968079;29;20042;-74
2022/01/16 01:55:42;;;;;;;22.10;7.63;;;3.90;99.90;;;;;;4968280;28;20086;-72
2022/01/16 01:58:08;;;;;;;24.60;7.22;;;3.80;99.90;;;;;;4983423;28;20035;-72
2022/01/16 02:00:34;;;;;;;17.33;7.40;;;3.90;99.90;;;;;;4967761;28;20061;-73
2022/01/16 02:05:32;;;;;;;24.00;8.05;;;3.80;99.90;;;;;;4968092;29;20033;-74
2022/01/16 02:07:58;;;;;;;17.75;6.82;;;3.80;99.90;;;;;;4967789;28;20054;-73
2022/01/16 02:10:25;;;;;;;22.08;7.82;;;3.70;99.90;;;;;;4968183;28;20044;-75
2022/01/16 02:12:59;;;;;;;19.42;6.72;;;3.80;99.90;;;;;;4968264;28;20062;-74
2022/01/16 02:34:36;;;;;;;21.38;6.85;;;3.90;99.90;;;;;;4967227;28;20050;-74
2022/01/16 02:37:07;;;;;;;27.13;7.88;;;3.80;99.90;;;;;;4965159;29;20027;-74
2022/01/16 02:39:36;;;;;;;18.92;6.88;;;3.90;99.90;;;;;;4965989;29;20031;-74
2022/01/16 02:42:03;;;;;;;30.73;7.32;;;3.90;99.90;;;;;;4967228;28;20027;-74
2022/01/16 02:46:57;;;;;;;19.60;7.05;;;3.90;99.90;;;;;;4966910;29;20023;-73
2022/01/16 02:49:26;;;;;;;21.60;7.38;;;3.90;99.90;;;;;;4967462;28;20023;-74
2022/01/16 02:51:58;;;;;;;29.48;8.93;;;3.90;99.90;;;;;;4967637;28;20039;-73
2022/01/16 02:54:24;;;;;;;29.10;8.30;;;3.90;99.90;;;;;;4967425;28;20019;-73
2022/01/16 02:56:50;;;;;;;29.52;9.38;;;4.00;99.90;;;;;;4966762;28;20038;-72
2022/01/16 02:59:21;;;;;;;22.90;8.20;;;4.00;99.90;;;;;;4967229;29;20028;-72
2022/01/16 03:01:48;;;;;;;24.95;8.57;;;4.00;99.90;;;;;;4967334;28;20364;-70
2022/01/16 03:04:16;;;;;;;28.58;8.85;;;4.00;99.90;;;;;;4965445;29;20031;-72
2022/01/16 03:06:41;;;;;;;27.80;8.32;;;4.00;99.90;;;;;;4967197;28;20078;-72
2022/01/16 03:09:08;;;;;;;28.50;10.07;;;4.00;99.90;;;;;;4966254;29;20031;-72
2022/01/16 03:11:37;;;;;;;39.38;10.48;;;4.10;99.90;;;;;;4966590;28;20031;-72
2022/01/16 03:14:09;;;;;;;41.72;9.85;;;4.00;99.90;;;;;;4966935;28;20023;-72
2022/01/16 03:16:36;;;;;;;22.08;9.10;;;4.10;99.90;;;;;;4966678;28;20027;-71
2022/01/16 03:22:02;;;;;;;27.40;10.15;;;4.10;99.90;;;;;;4966154;29;20136;-74
2022/01/16 03:24:39;;;;;;;26.40;8.65;;;4.20;99.90;;;;;;4966095;28;20705;-74
2022/01/16 03:27:13;;;;;;;22.35;8.35;;;4.10;99.90;;;;;;4966663;28;20087;-73
2022/01/16 03:29:40;;;;;;;24.80;8.40;;;4.10;99.90;;;;;;4965310;29;20058;-72
2022/01/16 03:32:08;;;;;;;19.77;7.13;;;4.10;99.90;;;;;;4965981;28;20055;-73
2022/01/16 03:34:34;;;;;;;18.35;7.25;;;4.00;99.90;;;;;;4966291;28;20027;-73
2022/01/16 03:37:00;;;;;;;19.17;6.40;;;4.00;99.90;;;;;;4964755;29;20054;-72
2022/01/16 03:39:26;;;;;;;30.38;7.13;;;4.00;99.90;;;;;;4966281;28;20031;-74
2022/01/16 03:41:55;;;;;;;27.08;6.88;;;4.00;99.90;;;;;;4965930;28;20027;-73
2022/01/16 03:44:21;;;;;;;13.98;6.40;;;3.90;99.90;;;;;;4966438;28;20027;-73
2022/01/16 03:46:46;;;;;;;23.67;7.53;;;3.90;99.90;;;;;;4966631;28;20083;-72
2022/01/16 03:49:15;;;;;;;20.40;7.30;;;3.90;99.90;;;;;;4966374;28;20031;-74
2022/01/16 03:51:43;;;;;;;22.08;7.80;;;3.90;99.90;;;;;;4966179;28;20035;-72
2022/01/16 03:54:11;;;;;;;21.55;7.43;;;3.90;99.90;;;;;;4966012;28;20035;-73
2022/01/16 03:56:37;;;;;;;22.50;8.05;;;3.90;99.90;;;;;;4966429;28;20031;-72
2022/01/16 03:59:03;;;;;;;21.08;7.97;;;3.90;99.90;;;;;;4964652;29;20027;-72
2022/01/16 04:01:29;;;;;;;26.83;7.30;;;3.90;99.90;;;;;;4966399;28;20094;-71
2022/01/16 04:03:56;;;;;;;27.60;8.13;;;3.90;99.90;;;;;;4965808;29;20106;-73
2022/01/16 04:06:22;;;;;;;28.58;8.40;;;3.90;99.90;;;;;;4965982;28;20023;-72
2022/01/16 04:08:51;;;;;;;20.20;7.10;;;3.80;99.90;;;;;;4966410;28;20070;-73
2022/01/16 04:11:21;;;;;;;19.27;7.05;;;3.80;99.90;;;;;;4966231;28;20066;-72
2022/01/16 04:13:51;;;;;;;28.20;6.90;;;3.70;99.90;;;;;;4965212;29;20027;-70
2022/01/16 04:16:19;;;;;;;27.27;7.82;;;3.70;99.90;;;;;;4966710;28;20030;-72
2022/01/16 04:18:50;;;;;;;27.80;9.68;;;3.60;99.90;;;;;;4965790;28;20030;-70
2022/01/16 04:21:17;;;;;;;23.02;8.07;;;3.60;99.90;;;;;;4966192;28;20361;-71
2022/01/16 04:23:42;;;;;;;26.80;7.88;;;3.60;99.90;;;;;;4966246;28;20031;-72
2022/01/16 04:26:08;;;;;;;22.85;8.60;;;3.60;99.90;;;;;;4965781;29;20102;-71
2022/01/16 04:28:33;;;;;;;24.70;8.35;;;3.60;99.90;;;;;;4967016;28;20020;-71
2022/01/16 04:30:59;;;;;;;22.23;6.80;;;3.50;99.90;;;;;;4980868;28;20039;-72
2022/01/16 04:33:25;;;;;;;29.55;9.85;;;3.60;99.90;;;;;;4963405;29;20051;-72
2022/01/16 04:35:53;;;;;;;26.05;9.65;;;3.50;99.90;;;;;;4964362;28;20404;-71
2022/01/16 04:38:19;;;;;;;25.83;9.65;;;3.50;99.90;;;;;;4965894;29;20031;-72
2022/01/16 04:43:47;;;;;;;23.70;8.25;;;3.50;99.90;;;;;;4966176;28;20035;-70
2022/01/16 04:43:49;;;;;;;32.47;9.75;;;3.50;99.90;;;;;;4965774;29;20027;-72
2022/01/16 04:46:16;;;;;;;31.25;9.77;;;3.60;99.90;;;;;;4965402;28;20035;-71
2022/01/16 04:48:42;;;;;;;27.08;9.77;;;3.60;99.90;;;;;;4965891;28;20059;-72
2022/01/16 04:51:09;;;;;;;33.45;10.40;;;3.60;99.90;;;;;;4965756;28;20050;-72
2022/01/16 04:53:34;;;;;;;27.77;9.05;;;3.60;99.90;;;;;;4966011;28;20091;-71
2022/01/16 04:56:00;;;;;;;30.08;9.18;;;3.60;99.90;;;;;;4969475;29;20035;-71
2022/01/16 04:58:26;;;;;;;33.30;10.45;;;3.60;99.90;;;;;;4969519;28;20031;-71
2022/01/16 05:00:54;;;;;;;27.40;9.68;;;3.60;99.90;;;;;;4969114;28;20056;-73
2022/01/16 05:03:21;;;;;;;20.83;8.60;;;3.60;99.90;;;;;;4969669;28;20038;-73
2022/01/16 05:05:47;;;;;;;25.73;9.95;;;3.60;99.90;;;;;;4969358;28;20027;-72
2022/01/16 05:08:13;;;;;;;33.05;11.32;;;3.60;99.90;;;;;;4969063;29;20038;-72
2022/01/16 05:10:38;;;;;;;29.00;9.68;;;3.50;99.90;;;;;;4968827;29;20031;-72
2022/01/16 05:13:30;;;;;;;27.65;8.73;;;3.50;99.90;;;;;;4968821;29;20066;-72
2022/01/16 05:18:42;;;;;;;37.92;10.80;;;3.50;99.90;;;;;;4969018;29;20037;-71
2022/01/16 05:21:08;;;;;;;29.17;9.45;;;3.60;99.90;;;;;;4968839;28;20027;-71
2022/01/16 05:23:34;;;;;;;26.45;9.45;;;3.60;99.90;;;;;;4969151;28;20038;-72
2022/01/16 05:26:01;;;;;;;32.60;11.02;;;3.60;99.90;;;;;;4967296;29;20027;-72
2022/01/16 05:28:28;;;;;;;29.60;10.38;;;3.60;99.90;;;;;;4968353;28;20074;-71
2022/01/16 05:30:55;;;;;;;28.95;10.50;;;3.50;99.90;;;;;;4968770;28;20098;-71
2022/01/16 05:33:22;;;;;;;40.22;11.02;;;3.50;99.90;;;;;;4966878;29;20058;-72
2022/01/16 05:35:48;;;;;;;24.98;8.82;;;3.50;99.90;;;;;;4969480;28;20034;-71
2022/01/16 05:38:14;;;;;;;34.65;10.15;;;3.50;99.90;;;;;;4968830;28;20031;-71
2022/01/16 05:40:40;;;;;;;28.13;9.07;;;3.50;99.90;;;;;;4966839;29;20057;-71
2022/01/16 05:43:06;;;;;;;26.63;9.90;;;3.50;99.90;;;;;;4968384;28;20023;-72
2022/01/16 05:45:32;;;;;;;25.70;9.55;;;3.50;99.90;;;;;;4967572;28;20038;-70
2022/01/16 05:47:58;;;;;;;40.17;12.30;;;3.40;99.90;;;;;;4968204;29;20035;-71
2022/01/16 05:50:26;;;;;;;42.70;10.98;;;3.40;99.90;;;;;;4967284;29;20107;-71
2022/01/16 05:52:52;;;;;;;48.58;10.43;;;3.30;99.90;;;;;;4968240;28;20031;-71
2022/01/16 05:55:21;;;;;;;36.50;11.57;;;3.40;99.90;;;;;;4967405;28;20038;-73
2022/01/16 05:57:47;;;;;;;43.65;11.52;;;3.30;99.90;;;;;;4968791;28;20042;-72
2022/01/16 06:00:14;;;;;;;35.47;11.48;;;3.30;99.90;;;;;;4968353;29;20031;-71
2022/01/16 06:02:40;;;;;;;35.00;9.82;;;3.40;99.90;;;;;;4967892;28;20648;-71
2022/01/16 06:05:07;;;;;;;31.70;11.73;;;3.30;99.90;;;;;;4966621;28;20038;-71
2022/01/16 06:07:33;;;;;;;29.08;9.25;;;3.30;99.90;;;;;;4966449;28;20121;-71
2022/01/16 06:09:59;;;;;;;42.75;11.32;;;3.30;99.90;;;;;;4967214;28;20357;-72
2022/01/16 06:12:26;;;;;;;21.92;8.75;;;3.30;99.90;;;;;;4968336;29;20065;-71
2022/01/16 06:14:51;;;;;;;52.03;13.52;;;3.30;99.90;;;;;;4968023;29;20083;-74
2022/01/16 06:17:17;;;;;;;46.65;13.50;;;3.20;99.90;;;;;;4968194;29;20035;-71
2022/01/16 06:19:51;;;;;;;28.63;10.55;;;3.20;99.90;;;;;;4968093;29;20538;-72
2022/01/16 06:22:17;;;;;;;36.03;10.52;;;3.20;99.90;;;;;;4965330;28;20034;-72
2022/01/16 06:24:42;;;;;;;51.60;14.20;;;3.20;99.90;;;;;;4967887;29;20035;-71
2022/01/16 06:27:08;;;;;;;43.80;12.60;;;3.20;99.90;;;;;;4967453;28;20869;-71
2022/01/16 06:29:36;;;;;;;41.30;10.77;;;3.20;99.90;;;;;;4967221;29;20027;-72
2022/01/16 06:32:02;;;;;;;43.90;12.82;;;3.20;99.90;;;;;;4967265;29;20106;-72
2022/01/16 06:34:27;;;;;;;40.88;12.15;;;3.20;99.90;;;;;;4967883;29;20035;-73
2022/01/16 06:36:53;;;;;;;43.20;13.80;;;3.20;99.90;;;;;;4967549;29;20027;-71
2022/01/16 06:39:19;;;;;;;41.30;12.30;;;3.20;99.90;;;;;;4967875;29;20055;-73
2022/01/16 06:41:45;;;;;;;38.10;12.15;;;3.20;99.90;;;;;;4967071;29;20039;-71
2022/01/16 06:44:10;;;;;;;35.80;12.80;;;3.20;99.90;;;;;;4967379;29;20038;-71
2022/01/16 06:46:36;;;;;;;51.55;13.25;;;3.20;99.90;;;;;;4967619;29;20451;-71
2022/01/16 06:49:01;;;;;;;36.28;10.45;;;3.20;99.90;;;;;;4967145;29;20027;-71
2022/01/16 06:51:27;;;;;;;51.53;14.82;;;3.20;99.90;;;;;;4966869;29;20122;-72
2022/01/16 06:53:53;;;;;;;46.33;14.02;;;3.20;99.90;;;;;;4967571;29;20471;-73
2022/01/16 06:56:21;;;;;;;51.15;14.38;;;3.30;99.90;;;;;;4967042;29;20039;-73
2022/01/16 06:58:47;;;;;;;49.00;14.55;;;3.20;99.90;;;;;;4966082;29;20034;-73
2022/01/16 07:01:13;;;;;;;46.70;13.13;;;3.20;99.90;;;;;;4965833;29;20086;-72
2022/01/16 07:03:39;;;;;;;51.10;12.98;;;3.20;99.90;;;;;;4966671;28;20028;-72
2022/01/16 07:06:06;;;;;;;60.92;14.80;;;3.30;99.90;;;;;;4967253;28;20078;-72
2022/01/16 07:08:32;;;;;;;43.28;13.32;;;3.30;99.90;;;;;;4967083;28;20023;-74
2022/01/16 07:11:00;;;;;;;50.70;14.45;;;3.30;99.90;;;;;;4966581;28;20035;-74
2022/01/16 07:13:27;;;;;;;53.35;14.50;;;3.30;99.90;;;;;;4967033;28;20034;-74
2022/01/16 07:15:55;;;;;;;48.17;15.05;;;3.30;99.90;;;;;;4966604;28;20020;-76
2022/01/16 07:18:21;;;;;;;56.92;14.25;;;3.30;99.90;;;;;;4966419;28;20027;-76
2022/01/16 07:20:47;;;;;;;58.03;16.88;;;3.30;99.90;;;;;;4966387;29;20045;-75
2022/01/16 07:23:15;;;;;;;52.83;15.63;;;3.30;99.90;;;;;;4966805;29;20138;-77
2022/01/16 07:25:42;;;;;;;52.97;15.93;;;3.30;99.90;;;;;;4964026;29;20067;-75
2022/01/16 07:28:08;;;;;;;47.38;14.38;;;3.30;99.90;;;;;;4964515;29;20063;-74
2022/01/16 07:30:36;;;;;;;55.30;15.65;;;3.40;99.90;;;;;;4965105;29;20031;-74
2022/01/16 07:33:02;;;;;;;53.78;16.85;;;3.30;99.90;;;;;;4964260;29;20115;-75
2022/01/16 07:35:32;;;;;;;46.75;14.23;;;3.40;99.90;;;;;;4965148;29;20027;-75
2022/01/16 07:37:58;;;;;;;47.60;13.60;;;3.30;99.90;;;;;;4966529;28;20114;-74
2022/01/16 07:40:25;;;;;;;44.13;12.07;;;3.30;99.90;;;;;;4966213;29;20053;-74
2022/01/16 07:42:51;;;;;;;46.72;13.90;;;3.30;99.90;;;;;;4966138;28;20039;-76
2022/01/16 07:45:25;;;;;;;35.40;12.93;;;3.30;99.90;;;;;;4966507;29;20059;-75
2022/01/16 07:47:53;;;;;;;58.92;15.32;;;3.30;99.90;;;;;;4964962;29;20031;-76
2022/01/16 07:50:20;;;;;;;47.45;13.52;;;3.30;99.90;;;;;;4965831;29;20064;-76
2022/01/16 07:52:47;;;;;;;56.67;15.25;;;3.30;99.90;;;;;;4966252;28;20028;-75
2022/01/16 07:55:14;;;;;;;58.47;15.13;;;3.40;99.90;;;;;;4965201;28;20447;-73
2022/01/16 07:57:39;;;;;;;52.28;14.25;;;3.30;99.90;;;;;;4965560;28;20035;-76
2022/01/16 08:00:07;;;;;;;48.38;15.30;;;3.30;99.90;;;;;;4964449;28;20070;-76
2022/01/16 08:02:33;;;;;;;49.13;15.18;;;3.30;99.90;;;;;;4964064;29;20447;-74
2022/01/16 08:04:58;;;;;;;67.20;14.20;;;3.30;99.90;;;;;;4964350;29;20035;-77
2022/01/16 08:07:24;;;;;;;47.30;12.77;;;3.30;99.90;;;;;;4964044;29;20042;-77
2022/01/16 08:09:50;;;;;;;53.83;15.35;;;3.30;99.90;;;;;;4963531;28;20027;-76
2022/01/16 08:12:15;;;;;;;59.50;17.08;;;3.30;99.90;;;;;;4965912;29;20078;-76
2022/01/16 08:14:41;;;;;;;48.15;16.02;;;3.40;99.90;;;;;;4965331;29;20031;-76
2022/01/16 08:17:07;;;;;;;52.67;16.65;;;3.40;99.90;;;;;;4965968;29;20027;-76
2022/01/16 08:19:33;;;;;;;56.85;15.70;;;3.40;99.90;;;;;;4965906;29;20034;-77
2022/01/16 08:21:59;;;;;;;54.58;15.30;;;3.60;99.90;;;;;;4965043;28;20032;-75
2022/01/16 08:24:25;;;;;;;62.75;16.00;;;3.50;99.90;;;;;;4964357;29;20043;-76
2022/01/16 08:26:52;;;;;;;54.85;15.18;;;3.50;99.90;;;;;;4964807;28;20035;-77
2022/01/16 08:29:19;;;;;;;53.53;16.00;;;3.50;99.90;;;;;;4968275;28;20093;-76
2022/01/16 08:31:44;;;;;;;54.47;16.65;;;3.50;99.90;;;;;;4969120;28;20047;-77
2022/01/16 08:34:10;;;;;;;61.50;15.07;;;3.50;99.90;;;;;;4969467;29;20019;-76
2022/01/16 08:36:36;;;;;;;78.50;15.68;;;3.50;99.90;;;;;;4968162;29;20040;-76
2022/01/16 08:39:03;;;;;;;52.42;14.43;;;3.50;99.90;;;;;;4967462;29;20055;-74
2022/01/16 08:41:28;;;;;;;51.38;14.30;;;3.60;99.90;;;;;;4967725;29;20062;-74
2022/01/16 08:43:54;;;;;;;44.35;14.45;;;3.60;99.90;;;;;;4969756;28;20049;-77
2022/01/16 08:46:21;;;;;;;57.28;16.00;;;3.60;99.90;;;;;;4969611;29;20503;-76
2022/01/16 08:48:47;;;;;;;54.28;15.82;;;3.60;99.90;;;;;;4969088;28;20023;-75
2022/01/16 08:51:13;;;;;;;50.08;14.80;;;3.60;99.90;;;;;;4969139;28;20051;-77
2022/01/16 08:53:39;;;;;;;56.10;16.52;;;3.70;99.90;;;;;;4984126;28;20071;-74
2022/01/16 08:56:05;;;;;;;50.85;15.27;;;3.70;99.90;;;;;;4969061;28;20086;-76
2022/01/16 08:58:31;;;;;;;52.10;15.02;;;3.70;99.90;;;;;;4968514;28;20027;-75
2022/01/16 09:00:56;;;;;;;74.75;17.98;;;3.70;99.90;;;;;;4967924;29;20077;-75
2022/01/16 09:03:24;;;;;;;47.42;15.75;;;3.70;99.90;;;;;;4983704;28;20023;-73
2022/01/16 09:05:51;;;;;;;55.53;15.43;;;3.60;99.90;;;;;;4968316;29;20039;-76
2022/01/16 09:08:22;;;;;;;44.35;15.32;;;3.70;99.90;;;;;;4969093;28;20041;-75
2022/01/16 09:10:48;;;;;;;71.88;16.65;;;3.70;99.90;;;;;;4965790;29;20046;-76
2022/01/16 09:13:17;;;;;;;52.75;13.68;;;3.70;99.90;;;;;;4969808;28;20403;-75
2022/01/16 09:15:44;;;;;;;44.28;15.48;;;3.80;99.90;;;;;;4948534;29;20036;-75
2022/01/16 09:18:11;;;;;;;64.97;15.95;;;3.80;99.90;;;;;;4960955;28;20535;-77
2022/01/16 09:20:38;;;;;;;58.03;14.52;;;3.80;99.90;;;;;;4967460;28;20072;-76
2022/01/16 09:23:04;;;;;;;50.72;15.40;;;3.80;99.90;;;;;;4967858;28;20031;-77
2022/01/16 09:25:30;;;;;;;49.58;14.95;;;3.80;99.90;;;;;;4966368;28;20028;-77
2022/01/16 09:27:56;;;;;;;49.00;16.15;;;3.80;99.90;;;;;;4966540;28;20061;-76
2022/01/16 09:30:23;;;;;;;43.03;14.38;;;3.80;99.90;;;;;;4966338;29;20032;-74
2022/01/16 09:32:50;;;;;;;56.85;14.95;;;3.80;99.90;;;;;;4968753;28;20061;-76
2022/01/16 09:35:18;;;;;;;50.40;14.48;;;3.80;99.90;;;;;;4967439;28;20406;-77
2022/01/16 09:37:45;;;;;;;49.33;16.23;;;3.90;99.90;;;;;;4965684;29;20056;-75
2022/01/16 09:40:13;;;;;;;51.05;15.02;;;3.90;99.90;;;;;;4966876;28;20047;-75
2022/01/16 09:42:39;;;;;;;49.03;12.55;;;3.90;99.90;;;;;;4967143;28;20480;-77
2022/01/16 09:45:08;;;;;;;43.70;13.63;;;3.90;99.90;;;;;;4967650;28;20027;-77
2022/01/16 09:47:38;;;;;;;46.45;12.63;;;3.90;99.90;;;;;;4967906;28;20031;-79
2022/01/16 09:50:05;;;;;;;54.15;13.50;;;3.90;99.90;;;;;;4967076;28;20039;-76
2022/01/16 09:52:37;;;;;;;56.58;14.73;;;4.00;99.90;;;;;;4966065;29;20027;-76
2022/01/16 09:55:04;;;;;;;61.40;13.63;;;3.90;99.90;;;;;;4966858;29;20023;-78
2022/01/16 09:57:30;;;;;;;44.47;14.52;;;3.90;99.90;;;;;;4966549;28;20023;-77
2022/01/16 09:59:55;;;;;;;40.97;13.18;;;3.90;99.90;;;;;;4967332;29;20031;-78
2022/01/16 10:02:21;;;;;;;54.38;13.88;;;4.00;99.90;;;;;;4967658;29;20122;-75
2022/01/16 10:04:47;;;;;;;48.95;13.95;;;4.00;99.90;;;;;;4969983;28;20030;-73
2022/01/16 10:07:16;;;;;;;46.40;13.73;;;4.00;99.90;;;;;;4978138;28;20030;-77
2022/01/16 10:09:46;;;;;;;49.90;12.63;;;3.90;99.90;;;;;;4967522;28;20027;-78
2022/01/16 10:12:17;;;;;;;54.00;12.27;;;4.00;99.90;;;;;;4966788;28;20043;-80
2022/01/16 10:14:48;;;;;;;46.25;15.00;;;4.00;99.90;;;;;;4965518;28;20050;-77
2022/01/16 10:17:27;;;;;;;43.33;11.80;;;4.10;99.90;;;;;;4965871;29;20031;-79
2022/01/16 10:20:07;;;;;;;39.53;13.30;;;4.00;99.90;;;;;;4966777;29;20037;-78
2022/01/16 10:22:40;;;;;;;39.53;11.02;;;4.00;99.90;;;;;;4959111;29;20035;-76
2022/01/16 10:25:07;;;;;;;40.92;13.20;;;4.00;99.90;;;;;;4962247;29;20031;-75
2022/01/16 10:27:38;;;;;;;48.85;12.48;;;4.00;99.90;;;;;;4967169;28;20083;-76
2022/01/16 10:30:07;;;;;;;59.25;15.35;;;4.00;99.90;;;;;;4964465;28;20031;-76
2022/01/16 10:32:36;;;;;;;48.60;14.27;;;4.00;99.90;;;;;;4962821;28;20051;-76
2022/01/16 10:35:22;;;;;;;57.17;17.20;;;4.00;99.90;;;;;;4967010;28;20478;-78
2022/01/16 10:37:58;;;;;;;49.85;16.33;;;4.10;99.90;;;;;;4965607;29;20058;-78
2022/01/16 10:40:36;;;;;;;47.58;13.30;;;4.10;99.90;;;;;;4967434;28;20162;-77
2022/01/16 10:43:15;;;;;;;49.83;15.18;;;4.10;99.90;;;;;;4966780;28;20038;-76
2022/01/16 10:45:43;;;;;;;60.50;15.32;;;4.00;99.90;;;;;;4963601;28;20137;-78
2022/01/16 10:48:10;;;;;;;67.40;15.63;;;4.00;99.90;;;;;;4965127;28;20027;-76
2022/01/16 10:50:45;;;;;;;59.70;16.17;;;4.10;99.90;;;;;;4965220;28;20126;-78
2022/01/16 10:53:15;;;;;;;54.70;15.43;;;4.10;99.90;;;;;;4964973;28;20035;-76
2022/01/16 10:56:07;;;;;;;45.05;15.25;;;4.10;99.90;;;;;;4963800;29;20038;-77
2022/01/16 10:58:36;;;;;;;52.53;15.60;;;4.10;99.90;;;;;;4963078;28;20063;-76
2022/01/16 11:01:08;;;;;;;40.50;15.30;;;4.10;99.90;;;;;;4965009;29;20023;-77
2022/01/16 11:03:40;;;;;;;52.53;16.40;;;4.10;99.90;;;;;;4970565;28;20031;-78
2022/01/16 11:06:06;;;;;;;67.75;16.40;;;4.20;99.90;;;;;;4964053;29;20027;-76
2022/01/16 11:08:32;;;;;;;51.50;15.27;;;4.20;99.90;;;;;;4966058;28;20089;-77
2022/01/16 11:10:59;;;;;;;40.72;13.48;;;4.20;99.90;;;;;;4965943;28;20047;-78
2022/01/16 11:13:30;;;;;;;62.08;18.05;;;4.30;99.90;;;;;;4965284;28;20019;-80
2022/01/16 11:16:02;;;;;;;59.65;17.42;;;4.30;99.90;;;;;;4964260;29;20035;-77
2022/01/16 11:18:28;;;;;;;48.45;14.93;;;4.30;99.90;;;;;;4966051;28;20027;-77
2022/01/16 11:21:03;;;;;;;78.20;16.98;;;4.30;99.90;;;;;;4965639;28;20027;-77
2022/01/16 11:23:33;;;;;;;56.38;14.35;;;4.40;99.90;;;;;;4963408;29;20122;-78
2022/01/16 11:26:04;;;;;;;60.65;16.35;;;4.50;99.90;;;;;;4979277;28;20035;-77
2022/01/16 11:28:30;;;;;;;39.95;13.15;;;4.40;99.90;;;;;;4976020;28;20030;-78
2022/01/16 11:30:59;;;;;;;49.08;14.82;;;4.60;99.90;;;;;;4984750;28;20126;-75
2022/01/16 11:33:27;;;;;;;52.88;15.75;;;4.50;99.90;;;;;;4983063;28;20495;-76
2022/01/16 11:36:12;;;;;;;45.13;16.38;;;4.50;99.90;;;;;;4960973;28;20027;-76
2022/01/16 11:38:49;;;;;;;46.40;17.17;;;4.50;99.90;;;;;;4961771;29;20027;-75
2022/01/16 11:41:25;;;;;;;47.80;15.80;;;4.60;99.90;;;;;;4962202;28;20627;-75
2022/01/16 11:43:52;;;;;;;;;;;4.60;99.90;;;;;;4962647;29;20441;-78
2022/01/16 11:46:23;;;;;;;45.40;15.95;;;4.70;99.90;;;;;;4964119;28;19915;-76
2022/01/16 11:48:58;;;;;;;51.70;15.90;;;4.70;99.90;;;;;;4963620;28;20034;-78
2022/01/16 11:53:58;;;;;;;51.72;14.10;;;4.80;99.90;;;;;;4960803;29;20031;-76
2022/01/16 11:56:39;;;;;;;45.45;15.63;;;4.90;99.90;;;;;;4962641;28;20027;-76
2022/01/16 11:59:30;;;;;;;65.28;18.40;;;4.90;99.90;;;;;;4965746;28;20384;-77
2022/01/16 12:02:07;;;;;;;54.47;17.33;;;5.00;99.90;;;;;;4963451;28;20066;-77
2022/01/16 12:04:32;;;;;;;50.33;16.77;;;5.00;99.90;;;;;;4963248;29;20082;-75
2022/01/16 12:06:58;;;;;;;74.45;17.42;;;5.00;99.90;;;;;;4962909;29;20107;-76
2022/01/16 12:12:14;;;;;;;37.22;14.27;;;5.10;99.90;;;;;;4961808;29;20050;-75
2022/01/16 12:15:00;;;;;;;49.20;14.93;;;5.20;99.90;;;;;;4960667;28;20046;-76
2022/01/16 12:17:45;;;;;;;49.20;15.77;;;5.30;99.90;;;;;;4960723;29;20031;-75
2022/01/16 12:20:14;;;;;;;53.75;16.77;;;5.30;99.90;;;;;;4963375;28;20035;-75
2022/01/16 12:22:55;;;;;;;50.95;16.20;;;5.30;99.90;;;;;;4958327;29;20035;-77
2022/01/16 12:25:36;;;;;;;52.40;16.95;;;5.40;99.90;;;;;;4958048;29;20091;-76
2022/01/16 12:28:05;;;;;;;46.50;15.40;;;5.40;99.90;;;;;;4962088;29;20035;-77
2022/01/16 12:30:35;;;;;;;40.92;14.55;;;5.40;99.90;;;;;;4960357;28;20027;-77
2022/01/16 12:33:11;;;;;;;45.60;16.27;;;5.40;99.90;;;;;;4946544;29;20062;-78
2022/01/16 12:35:50;;;;;;;40.42;15.55;;;5.60;99.90;;;;;;4960059;29;20605;-76
2022/01/16 12:38:22;;;;;;;56.08;15.50;;;5.40;99.90;;;;;;4963292;29;20027;-75
2022/01/16 12:40:52;;;;;;;60.88;16.27;;;5.50;99.90;;;;;;4963632;28;20379;-75
2022/01/16 12:43:40;;;;;;;60.10;17.05;;;5.60;99.90;;;;;;4962887;28;20031;-76
2022/01/16 12:46:09;;;;;;;49.17;13.57;;;5.60;99.90;;;;;;4960659;29;20101;-77
2022/01/16 12:48:43;;;;;;;53.30;15.65;;;5.60;99.90;;;;;;4963385;28;20416;-77
2022/01/16 12:51:09;;;;;;;63.97;16.38;;;5.60;99.90;;;;;;4960380;29;20138;-76
2022/01/16 12:53:48;;;;;;;50.67;17.23;;;5.70;99.90;;;;;;4963390;28;20102;-77
2022/01/16 12:56:25;;;;;;;53.22;16.15;;;5.70;99.90;;;;;;4949179;29;20019;-76
2022/01/16 12:58:56;;;;;;;44.83;14.90;;;5.70;99.90;;;;;;4964234;28;20054;-77
2022/01/16 13:01:23;;;;;;;44.55;15.40;;;5.70;99.90;;;;;;4962904;29;20129;-77
2022/01/16 13:03:50;;;;;;;50.33;13.95;;;5.70;99.90;;;;;;4962607;29;20089;-77
2022/01/16 13:06:27;;;;;;;46.03;15.52;;;5.80;99.90;;;;;;4962438;29;20051;-76
2022/01/16 13:08:58;;;;;;;44.33;16.40;;;5.80;99.90;;;;;;4964156;28;20034;-76
2022/01/16 13:11:32;;;;;;;34.53;12.98;;;5.80;99.90;;;;;;4963750;28;20035;-76
2022/01/16 13:14:08;;;;;;;40.88;15.07;;;5.80;99.90;;;;;;4963872;28;20063;-75
2022/01/16 13:16:37;;;;;;;57.10;15.25;;;5.90;99.90;;;;;;4966298;29;20121;-76
2022/01/16 13:19:22;;;;;;;61.92;14.18;;;5.90;99.90;;;;;;4966095;29;20059;-76
2022/01/16 13:24:48;;;;;;;90.68;25.15;;;6.00;99.90;;;;;;4967160;28;20046;-76
2022/01/16 13:27:21;;;;;;;48.72;17.63;;;6.00;99.90;;;;;;4966272;28;20491;-76
2022/01/16 13:30:16;;;;;;;42.78;16.92;;;6.10;99.90;;;;;;4967967;28;20031;-77
2022/01/16 13:32:42;;;;;;;40.00;16.08;;;6.10;99.90;;;;;;4967174;28;20059;-76
2022/01/16 13:35:25;;;;;;;40.53;15.75;;;6.10;99.90;;;;;;4967186;28;20023;-77
2022/01/16 13:38:04;;;;;;;41.63;15.85;;;6.20;99.90;;;;;;4967377;29;20097;-75